sensor_id;sensor_type;location;lat;lon;timestamp;temperature;humidity
8269;DHT22;4174;48.304;16.364;2023-11-22T00:04:18;9.40;99.90
8269;DHT22;4174;48.304;16.364;2023-11-22T00:10:21;9.40;99.90
8269;DHT22;4174;48.304;16.364;2023-11-22T00:16:24;9.10;99.90
8269;DHT22;4174;48.304;16.364;2023-11-22T00:22:27;8.90;99.90
8269;DHT22;4174;48.304;16.364;2023-11-22T00:28:30;8.70;99.90
8269;DHT22;4174;48.304;16.364;2023-11-22T00:34:35;8.80;99.90
8269;DHT22;4174;48.304;16.364;2023-11-22T00:40:38;8.80;99.90
8269;DHT22;4174;48.304;16.364;2023-11-22T00:46:42;8.70;99.90
8269;DHT22;4174;48.304;16.364;2023-11-22T00:52:46;8.90;99.90
8269;DHT22;4174;48.304;16.364;2023-11-22T00:58:49;9.10;99.90
8269;DHT22;4174;48.304;16.364;2023-11-22T01:04:53;9.10;99.90
8269;DHT22;4174;48.304;16.364;2023-11-22T01:10:57;9.00;99.90
8269;DHT22;4174;48.304;16.364;2023-11-22T01:17:00;9.00;99.90
8269;DHT22;4174;48.304;16.364;2023-11-22T01:23:04;9.10;99.90
8269;DHT22;4174;48.304;16.364;2023-11-22T01:29:07;9.00;99.90
8269;DHT22;4174;48.304;16.364;2023-11-22T01:35:11;8.80;99.90
8269;DHT22;4174;48.304;16.364;2023-11-22T01:41:15;8.00;99.90
8269;DHT22;4174;48.304;16.364;2023-11-22T01:47:19;8.00;99.90
8269;DHT22;4174;48.304;16.364;2023-11-22T01:53:22;8.10;99.90
8269;DHT22;4174;48.304;16.364;2023-11-22T01:59:26;8.30;99.90
8269;DHT22;4174;48.304;16.364;2023-11-22T02:05:29;8.10;99.90
8269;DHT22;4174;48.304;16.364;2023-11-22T02:11:33;7.90;99.90
8269;DHT22;4174;48.304;16.364;2023-11-22T02:17:35;8.00;99.90
8269;DHT22;4174;48.304;16.364;2023-11-22T02:23:38;7.90;99.90
8269;DHT22;4174;48.304;16.364;2023-11-22T02:29:41;7.80;99.90
8269;DHT22;4174;48.304;16.364;2023-11-22T02:35:45;7.40;99.90
8269;DHT22;4174;48.304;16.364;2023-11-22T02:41:50;7.40;99.90
8269;DHT22;4174;48.304;16.364;2023-11-22T02:47:54;7.30;99.90
8269;DHT22;4174;48.304;16.364;2023-11-22T02:53:57;7.40;99.90
8269;DHT22;4174;48.304;16.364;2023-11-22T03:00:01;7.60;99.90
8269;DHT22;4174;48.304;16.364;2023-11-22T03:06:04;7.50;99.90
8269;DHT22;4174;48.304;16.364;2023-11-22T03:12:08;7.50;99.90
8269;DHT22;4174;48.304;16.364;2023-11-22T03:18:11;7.40;99.90
8269;DHT22;4174;48.304;16.364;2023-11-22T03:24:15;7.30;99.90
8269;DHT22;4174;48.304;16.364;2023-11-22T03:30:18;7.30;99.90
8269;DHT22;4174;48.304;16.364;2023-11-22T03:36:21;7.30;99.90
8269;DHT22;4174;48.304;16.364;2023-11-22T03:42:24;7.20;99.90
8269;DHT22;4174;48.304;16.364;2023-11-22T03:48:27;7.20;99.90
8269;DHT22;4174;48.304;16.364;2023-11-22T03:54:31;7.20;99.90
8269;DHT22;4174;48.304;16.364;2023-11-22T04:00:34;6.90;99.90
8269;DHT22;4174;48.304;16.364;2023-11-22T04:06:38;6.90;99.90
8269;DHT22;4174;48.304;16.364;2023-11-22T04:12:42;6.70;99.90
8269;DHT22;4174;48.304;16.364;2023-11-22T04:18:45;6.70;99.90
8269;DHT22;4174;48.304;16.364;2023-11-22T04:24:49;6.60;99.90
8269;DHT22;4174;48.304;16.364;2023-11-22T04:30:53;6.60;99.90
8269;DHT22;4174;48.304;16.364;2023-11-22T04:36:56;6.50;99.90
8269;DHT22;4174;48.304;16.364;2023-11-22T04:43:00;6.50;99.90
8269;DHT22;4174;48.304;16.364;2023-11-22T04:49:04;6.30;99.90
8269;DHT22;4174;48.304;16.364;2023-11-22T04:55:09;6.40;99.90
8269;DHT22;4174;48.304;16.364;2023-11-22T05:01:12;6.50;99.90
8269;DHT22;4174;48.304;16.364;2023-11-22T05:07:16;6.60;99.90
8269;DHT22;4174;48.304;16.364;2023-11-22T05:13:20;6.60;99.90
8269;DHT22;4174;48.304;16.364;2023-11-22T05:19:23;6.80;99.90
8269;DHT22;4174;48.304;16.364;2023-11-22T05:25:27;6.80;99.90
8269;DHT22;4174;48.304;16.364;2023-11-22T05:31:31;6.60;99.90
8269;DHT22;4174;48.304;16.364;2023-11-22T05:37:34;6.60;99.90
8269;DHT22;4174;48.304;16.364;2023-11-22T05:43:37;6.60;99.90
8269;DHT22;4174;48.304;16.364;2023-11-22T05:49:41;6.30;99.90
8269;DHT22;4174;48.304;16.364;2023-11-22T05:55:45;6.20;99.90
8269;DHT22;4174;48.304;16.364;2023-11-22T06:01:49;6.40;99.90
8269;DHT22;4174;48.304;16.364;2023-11-22T06:07:53;6.40;99.90
8269;DHT22;4174;48.304;16.364;2023-11-22T06:13:57;6.50;99.90
8269;DHT22;4174;48.304;16.364;2023-11-22T06:20:01;6.40;99.90
8269;DHT22;4174;48.304;16.364;2023-11-22T06:26:06;6.40;99.90
8269;DHT22;4174;48.304;16.364;2023-11-22T06:32:09;6.50;99.90
8269;DHT22;4174;48.304;16.364;2023-11-22T06:38:13;6.50;99.90
8269;DHT22;4174;48.304;16.364;2023-11-22T06:44:16;6.60;99.90
8269;DHT22;4174;48.304;16.364;2023-11-22T06:50:20;6.50;99.90
8269;DHT22;4174;48.304;16.364;2023-11-22T06:56:24;6.10;99.90
8269;DHT22;4174;48.304;16.364;2023-11-22T07:02:28;6.30;99.90
8269;DHT22;4174;48.304;16.364;2023-11-22T07:08:32;6.20;99.90
8269;DHT22;4174;48.304;16.364;2023-11-22T07:14:36;6.40;99.90
8269;DHT22;4174;48.304;16.364;2023-11-22T07:20:39;6.50;99.90
8269;DHT22;4174;48.304;16.364;2023-11-22T07:26:42;6.20;99.90
8269;DHT22;4174;48.304;16.364;2023-11-22T07:32:46;6.00;99.90
8269;DHT22;4174;48.304;16.364;2023-11-22T07:38:49;6.20;99.90
8269;DHT22;4174;48.304;16.364;2023-11-22T07:44:52;6.30;99.90
8269;DHT22;4174;48.304;16.364;2023-11-22T07:50:56;6.40;99.90
8269;DHT22;4174;48.304;16.364;2023-11-22T07:57:00;6.30;99.90
8269;DHT22;4174;48.304;16.364;2023-11-22T08:03:04;6.30;99.90
8269;DHT22;4174;48.304;16.364;2023-11-22T08:09:07;6.30;99.90
8269;DHT22;4174;48.304;16.364;2023-11-22T08:15:10;6.40;99.90
8269;DHT22;4174;48.304;16.364;2023-11-22T08:21:15;6.50;99.90
8269;DHT22;4174;48.304;16.364;2023-11-22T08:27:18;6.50;99.90
8269;DHT22;4174;48.304;16.364;2023-11-22T08:33:22;6.60;99.90
8269;DHT22;4174;48.304;16.364;2023-11-22T08:39:25;5.90;99.90
8269;DHT22;4174;48.304;16.364;2023-11-22T08:45:30;5.80;99.90
8269;DHT22;4174;48.304;16.364;2023-11-22T08:51:33;5.90;99.90
8269;DHT22;4174;48.304;16.364;2023-11-22T08:57:37;6.20;99.90
8269;DHT22;4174;48.304;16.364;2023-11-22T09:03:40;7.00;99.90
8269;DHT22;4174;48.304;16.364;2023-11-22T09:09:43;7.80;99.90
8269;DHT22;4174;48.304;16.364;2023-11-22T09:15:47;7.70;99.90
8269;DHT22;4174;48.304;16.364;2023-11-22T09:21:50;7.90;99.90
8269;DHT22;4174;48.304;16.364;2023-11-22T09:27:53;7.80;99.90
8269;DHT22;4174;48.304;16.364;2023-11-22T09:33:57;7.90;99.90
8269;DHT22;4174;48.304;16.364;2023-11-22T09:40:01;7.70;99.90
8269;DHT22;4174;48.304;16.364;2023-11-22T09:46:05;7.70;99.90
8269;DHT22;4174;48.304;16.364;2023-11-22T09:52:08;7.60;99.90
8269;DHT22;4174;48.304;16.364;2023-11-22T09:58:11;7.90;99.90
8269;DHT22;4174;48.304;16.364;2023-11-22T10:04:14;7.90;99.90
8269;DHT22;4174;48.304;16.364;2023-11-22T10:10:19;8.00;99.90
8269;DHT22;4174;48.304;16.364;2023-11-22T10:16:22;7.70;99.90
8269;DHT22;4174;48.304;16.364;2023-11-22T10:22:26;7.70;99.90
8269;DHT22;4174;48.304;16.364;2023-11-22T10:28:30;7.50;99.90
8269;DHT22;4174;48.304;16.364;2023-11-22T10:34:34;7.00;99.90
8269;DHT22;4174;48.304;16.364;2023-11-22T10:40:37;7.00;99.90
8269;DHT22;4174;48.304;16.364;2023-11-22T10:46:41;7.20;99.90
8269;DHT22;4174;48.304;16.364;2023-11-22T10:52:44;7.10;99.90
8269;DHT22;4174;48.304;16.364;2023-11-22T10:58:48;7.40;99.90
8269;DHT22;4174;48.304;16.364;2023-11-22T11:04:55;7.50;99.90
8269;DHT22;4174;48.304;16.364;2023-11-22T11:10:59;7.30;99.90
8269;DHT22;4174;48.304;16.364;2023-11-22T11:17:01;7.10;99.90
8269;DHT22;4174;48.304;16.364;2023-11-22T11:23:05;7.10;99.90
8269;DHT22;4174;48.304;16.364;2023-11-22T11:29:08;6.90;99.90
8269;DHT22;4174;48.304;16.364;2023-11-22T11:35:11;6.50;99.90
8269;DHT22;4174;48.304;16.364;2023-11-22T11:41:16;5.90;99.90
8269;DHT22;4174;48.304;16.364;2023-11-22T11:47:19;5.80;99.90
8269;DHT22;4174;48.304;16.364;2023-11-22T11:53:23;5.80;99.90
8269;DHT22;4174;48.304;16.364;2023-11-22T11:59:27;5.80;99.90
8269;DHT22;4174;48.304;16.364;2023-11-22T12:05:30;5.80;99.90
8269;DHT22;4174;48.304;16.364;2023-11-22T12:11:34;5.90;99.90
8269;DHT22;4174;48.304;16.364;2023-11-22T12:17:37;6.10;99.90
8269;DHT22;4174;48.304;16.364;2023-11-22T12:23:41;6.20;99.90
8269;DHT22;4174;48.304;16.364;2023-11-22T12:29:43;6.40;99.90
8269;DHT22;4174;48.304;16.364;2023-11-22T12:35:47;6.60;99.90
8269;DHT22;4174;48.304;16.364;2023-11-22T12:41:50;6.60;99.90
8269;DHT22;4174;48.304;16.364;2023-11-22T12:47:52;6.40;99.90
8269;DHT22;4174;48.304;16.364;2023-11-22T12:53:55;6.50;99.90
8269;DHT22;4174;48.304;16.364;2023-11-22T12:59:59;6.50;99.90
8269;DHT22;4174;48.304;16.364;2023-11-22T13:06:02;6.60;99.90
8269;DHT22;4174;48.304;16.364;2023-11-22T13:12:06;6.50;99.90
8269;DHT22;4174;48.304;16.364;2023-11-22T13:18:10;6.70;99.90
8269;DHT22;4174;48.304;16.364;2023-11-22T13:24:15;6.50;99.90
8269;DHT22;4174;48.304;16.364;2023-11-22T13:30:18;6.30;99.90
8269;DHT22;4174;48.304;16.364;2023-11-22T13:36:20;6.50;99.90
8269;DHT22;4174;48.304;16.364;2023-11-22T13:42:24;6.70;99.90
8269;DHT22;4174;48.304;16.364;2023-11-22T13:48:27;6.90;99.90
8269;DHT22;4174;48.304;16.364;2023-11-22T13:54:31;6.80;99.90
8269;DHT22;4174;48.304;16.364;2023-11-22T14:00:34;6.70;99.90
8269;DHT22;4174;48.304;16.364;2023-11-22T14:06:38;6.60;99.90
8269;DHT22;4174;48.304;16.364;2023-11-22T14:12:42;6.40;99.90
8269;DHT22;4174;48.304;16.364;2023-11-22T14:18:45;6.40;99.90
8269;DHT22;4174;48.304;16.364;2023-11-22T14:24:50;6.40;99.90
8269;DHT22;4174;48.304;16.364;2023-11-22T14:30:53;6.40;99.90
8269;DHT22;4174;48.304;16.364;2023-11-22T14:36:57;6.30;99.90
8269;DHT22;4174;48.304;16.364;2023-11-22T14:43:00;6.20;99.90
8269;DHT22;4174;48.304;16.364;2023-11-22T14:49:03;6.30;99.90
8269;DHT22;4174;48.304;16.364;2023-11-22T14:55:07;6.40;99.90
8269;DHT22;4174;48.304;16.364;2023-11-22T15:01:11;6.50;99.90
8269;DHT22;4174;48.304;16.364;2023-11-22T15:07:14;6.50;99.90
8269;DHT22;4174;48.304;16.364;2023-11-22T15:13:18;6.60;99.90
8269;DHT22;4174;48.304;16.364;2023-11-22T15:19:22;6.20;99.90
8269;DHT22;4174;48.304;16.364;2023-11-22T15:25:25;6.20;99.90
8269;DHT22;4174;48.304;16.364;2023-11-22T15:31:30;6.20;99.90
8269;DHT22;4174;48.304;16.364;2023-11-22T15:37:34;6.40;99.90
8269;DHT22;4174;48.304;16.364;2023-11-22T15:43:38;6.40;99.90
8269;DHT22;4174;48.304;16.364;2023-11-22T15:49:41;6.40;99.90
8269;DHT22;4174;48.304;16.364;2023-11-22T15:55:45;6.30;99.90
8269;DHT22;4174;48.304;16.364;2023-11-22T16:01:48;6.40;99.90
8269;DHT22;4174;48.304;16.364;2023-11-22T16:07:52;6.30;99.90
8269;DHT22;4174;48.304;16.364;2023-11-22T16:13:55;6.20;99.90
8269;DHT22;4174;48.304;16.364;2023-11-22T16:19:59;6.20;99.90
8269;DHT22;4174;48.304;16.364;2023-11-22T16:26:02;6.10;99.90
8269;DHT22;4174;48.304;16.364;2023-11-22T16:32:05;5.80;99.90
8269;DHT22;4174;48.304;16.364;2023-11-22T16:38:10;5.90;99.90
8269;DHT22;4174;48.304;16.364;2023-11-22T16:44:13;5.60;99.90
8269;DHT22;4174;48.304;16.364;2023-11-22T16:50:17;5.80;99.90
8269;DHT22;4174;48.304;16.364;2023-11-22T16:56:21;5.90;99.90
8269;DHT22;4174;48.304;16.364;2023-11-22T17:02:25;5.90;99.90
8269;DHT22;4174;48.304;16.364;2023-11-22T17:08:29;6.00;99.90
8269;DHT22;4174;48.304;16.364;2023-11-22T17:14:33;6.00;99.90
8269;DHT22;4174;48.304;16.364;2023-11-22T17:20:37;6.00;99.90
8269;DHT22;4174;48.304;16.364;2023-11-22T17:26:40;6.00;99.90
8269;DHT22;4174;48.304;16.364;2023-11-22T17:32:44;6.10;99.90
8269;DHT22;4174;48.304;16.364;2023-11-22T17:38:48;5.90;99.90
8269;DHT22;4174;48.304;16.364;2023-11-22T17:44:51;5.80;99.90
8269;DHT22;4174;48.304;16.364;2023-11-22T17:50:54;5.60;99.90
8269;DHT22;4174;48.304;16.364;2023-11-22T17:56:58;5.80;99.90
8269;DHT22;4174;48.304;16.364;2023-11-22T18:03:02;5.90;99.90
8269;DHT22;4174;48.304;16.364;2023-11-22T18:09:05;5.90;99.90
8269;DHT22;4174;48.304;16.364;2023-11-22T18:15:08;5.70;99.90
8269;DHT22;4174;48.304;16.364;2023-11-22T18:21:16;5.60;99.90
8269;DHT22;4174;48.304;16.364;2023-11-22T18:27:20;5.60;99.90
8269;DHT22;4174;48.304;16.364;2023-11-22T18:33:23;5.50;99.90
8269;DHT22;4174;48.304;16.364;2023-11-22T18:39:27;5.30;99.90
8269;DHT22;4174;48.304;16.364;2023-11-22T18:45:30;5.30;99.90
8269;DHT22;4174;48.304;16.364;2023-11-22T18:51:34;5.30;99.90
8269;DHT22;4174;48.304;16.364;2023-11-22T18:57:37;5.50;99.90
8269;DHT22;4174;48.304;16.364;2023-11-22T19:03:40;5.60;99.90
8269;DHT22;4174;48.304;16.364;2023-11-22T19:09:44;5.70;99.90
8269;DHT22;4174;48.304;16.364;2023-11-22T19:15:49;5.70;99.90
8269;DHT22;4174;48.304;16.364;2023-11-22T19:21:52;5.70;99.90
8269;DHT22;4174;48.304;16.364;2023-11-22T19:27:56;5.60;99.90
8269;DHT22;4174;48.304;16.364;2023-11-22T19:34:00;5.60;99.90
8269;DHT22;4174;48.304;16.364;2023-11-22T19:40:04;5.70;99.90
8269;DHT22;4174;48.304;16.364;2023-11-22T19:46:09;5.70;99.90
8269;DHT22;4174;48.304;16.364;2023-11-22T19:52:14;5.70;99.90
8269;DHT22;4174;48.304;16.364;2023-11-22T19:58:17;5.70;99.90
8269;DHT22;4174;48.304;16.364;2023-11-22T20:04:20;5.30;99.90
8269;DHT22;4174;48.304;16.364;2023-11-22T20:10:24;5.20;99.90
8269;DHT22;4174;48.304;16.364;2023-11-22T20:16:29;5.20;99.90
8269;DHT22;4174;48.304;16.364;2023-11-22T20:22:32;5.10;99.90
8269;DHT22;4174;48.304;16.364;2023-11-22T20:28:37;5.20;99.90
8269;DHT22;4174;48.304;16.364;2023-11-22T20:34:41;5.20;99.90
8269;DHT22;4174;48.304;16.364;2023-11-22T20:40:44;5.20;99.90
8269;DHT22;4174;48.304;16.364;2023-11-22T20:46:48;5.40;99.90
8269;DHT22;4174;48.304;16.364;2023-11-22T20:52:52;5.40;99.90
8269;DHT22;4174;48.304;16.364;2023-11-22T20:58:55;5.30;99.90
8269;DHT22;4174;48.304;16.364;2023-11-22T21:04:58;5.20;99.90
8269;DHT22;4174;48.304;16.364;2023-11-22T21:11:02;5.20;99.90
8269;DHT22;4174;48.304;16.364;2023-11-22T21:17:05;5.30;99.90
8269;DHT22;4174;48.304;16.364;2023-11-22T21:23:10;5.30;99.90
8269;DHT22;4174;48.304;16.364;2023-11-22T21:29:14;5.50;99.90
8269;DHT22;4174;48.304;16.364;2023-11-22T21:35:17;5.50;99.90
8269;DHT22;4174;48.304;16.364;2023-11-22T21:41:21;5.60;99.90
8269;DHT22;4174;48.304;16.364;2023-11-22T21:47:24;5.60;99.90
8269;DHT22;4174;48.304;16.364;2023-11-22T21:53:28;5.60;99.90
8269;DHT22;4174;48.304;16.364;2023-11-22T21:59:32;5.60;99.90
8269;DHT22;4174;48.304;16.364;2023-11-22T22:05:36;5.70;99.90
8269;DHT22;4174;48.304;16.364;2023-11-22T22:11:39;5.70;99.90
8269;DHT22;4174;48.304;16.364;2023-11-22T22:17:43;5.70;99.90
8269;DHT22;4174;48.304;16.364;2023-11-22T22:23:47;5.60;99.90
8269;DHT22;4174;48.304;16.364;2023-11-22T22:29:51;5.70;99.90
8269;DHT22;4174;48.304;16.364;2023-11-22T22:35:54;5.70;99.90
8269;DHT22;4174;48.304;16.364;2023-11-22T22:41:58;5.80;99.90
8269;DHT22;4174;48.304;16.364;2023-11-22T22:48:04;5.70;99.90
8269;DHT22;4174;48.304;16.364;2023-11-22T22:54:09;5.70;99.90
8269;DHT22;4174;48.304;16.364;2023-11-22T23:00:14;5.80;99.90
8269;DHT22;4174;48.304;16.364;2023-11-22T23:06:24;5.80;99.90
8269;DHT22;4174;48.304;16.364;2023-11-22T23:12:28;5.70;99.90
8269;DHT22;4174;48.304;16.364;2023-11-22T23:18:31;5.70;99.90
8269;DHT22;4174;48.304;16.364;2023-11-22T23:24:36;5.70;99.90
8269;DHT22;4174;48.304;16.364;2023-11-22T23:30:40;5.70;99.90
8269;DHT22;4174;48.304;16.364;2023-11-22T23:36:43;5.80;99.90
8269;DHT22;4174;48.304;16.364;2023-11-22T23:42:47;5.70;99.90
8269;DHT22;4174;48.304;16.364;2023-11-22T23:48:50;5.70;99.90
8269;DHT22;4174;48.304;16.364;2023-11-22T23:54:53;5.70;99.90
